Station DCXA2 - Devils Cove Image indicating link to RSS feed of recent meteorological observations for station DCXA2


Conditions at DCXA2 as of
(8:22 am AKDT)
1622 GMT on 08/31/2026:
     

Click on the graph icon in the table below to see a time series plot of the last five days of that observation.

5-day plot - Wind Direction Wind Direction (WDIR): NE ( 40 deg true )
5-day plot - Wind Speed Wind Speed (WSPD): 5.1 kts
5-day plot - Wind Gust Wind Gust (GST): 7.0 kts
5-day plot - Atmospheric Pressure Atmospheric Pressure (PRES):29.72 in
5-day plot - Air Temperature Air Temperature (ATMP): 49.6 °F
5-day plot - Dew Point Dew Point (DEWP): 44.1 °F
5-day plot - Wind Chill Wind Chill (CHILL): 47.3 °F
5-day plot - Wind Speed at 10 Meters Wind Speed at 10 meters (WSPD10M): 5.8 kts
5-day plot - Wind Speed at 20 Meters Wind Speed at 20 meters (WSPD20M): 5.8 kts
5-day plot -  Wind Speed, Wind Gust and Atmospheric Pressure Combined plot of Wind Speed, Gust, and Air Pressure
Previous observations
TIME
(AKDT)
5-day plot - Wind Direction
WDIR
 
5-day plot - Wind Speed
WSPD
kts
5-day plot - Wind Gust
GST
kts
5-day plot - Wave Height
WVHT
ft
5-day plot - Dominant Wave Period
DPD
sec
5-day plot - Average Wave Period
APD
sec
5-day plot - Mean Wave Direction
MWD
 
5-day plot - Atmospheric Pressure
PRES
in
5-day plot - Pressure Tendency
PTDY
in
5-day plot - Air Temperature
ATMP
°F
5-day plot - Water Temperature
WTMP
°F
5-day plot - Dew Point
DEWP
°F
5-day plot - Salinity
SAL
psu
5-day plot - Visibility
VIS
nmi
5-day plot - Tide (above MLLW)
TIDE
ft
2026-08-31 08:12 am NE 4.1 6.0----29.71- 48.2- 43.5---
2026-08-31 08:02 amNNE 4.1 6.0----29.73- 47.7- 43.0---
2026-08-31 07:52 amNNE 4.1 7.0----29.72- 47.1- 43.2---
2026-08-31 07:42 amNNE 2.9 5.1----29.73- 46.8- 42.3---
2026-08-31 07:32 amNNE 2.9 7.0----29.73- 47.7- 42.8---
2026-08-31 07:22 amNNW 1.9 4.1----29.74- 47.1- 42.6---
2026-08-31 07:12 am N 1.9 4.1----29.74- 47.5- 42.8---
2026-08-31 07:02 am N 1.9 2.9----29.75- 47.7- 43.0---
2026-08-31 06:52 amNNW 2.9 5.1----29.75- 47.3- 43.0---
2026-08-31 06:42 amNNE 4.1 6.0----29.75- 47.7- 42.8---
2026-08-31 06:32 am NE 5.1 7.0----29.76- 48.0- 43.2---
2026-08-31 06:22 am N 4.1 7.0----29.76- 46.0- 42.1---
2026-08-31 06:12 amNNE 2.9 5.1----29.76- 46.0- 42.4---
2026-08-31 06:02 amNNE 4.1 6.0----29.78- 46.0- 43.0---
2026-08-31 05:52 amNNE 4.1 6.0----29.78- 46.0- 42.4---
2026-08-31 05:42 am N 2.9 4.1----29.78- 46.0- 42.4---
2026-08-31 05:32 am N 2.9 4.1----29.78- 46.9- 43.0---
2026-08-31 05:12 amNNE 2.9 6.0----29.79- 45.9- 42.3---
2026-08-31 05:02 amNNW 1.9 5.1----29.79- 46.9- 43.0---
2026-08-31 04:52 am N 2.9 5.1----29.79- 45.0- 40.6---
2026-08-31 04:42 amNNW 1.9 2.9----29.80- 46.6- 42.6---
2026-08-31 04:32 am N 1.0 2.9----29.80- 46.9- 42.6---
2026-08-31 04:22 amNNE 1.9 2.9----29.80- 46.2- 42.3---
2026-08-31 04:12 amNNE 1.9 2.9----29.81- 46.4- 42.1---
2026-08-31 04:02 amNNE 2.9 4.1----29.81- 47.3- 42.4---
2026-08-31 03:52 am N 2.9 2.9----29.82- 48.2- 43.0---
2026-08-31 03:42 amNNE 4.1 6.0----29.82- 48.4- 42.4---
2026-08-31 03:32 amNNE 4.1 5.1----29.82- 49.1- 42.8---
2026-08-31 03:22 amNNE 4.1 5.1----29.82- 49.1- 42.8---
2026-08-31 03:12 amNNE 5.1 8.0----29.83- 49.3- 43.0---
2026-08-31 03:02 am NE 5.1 7.0----29.83- 48.9- 43.0---
2026-08-31 02:52 amNNE 4.1 5.1----29.83- 48.0- 42.4---
2026-08-31 02:42 amNNE 4.1 5.1----29.83- 47.7- 42.4---
2026-08-31 02:32 am NE 4.1 7.0----29.83- 48.6- 42.3---
2026-08-31 02:22 am N 1.0 4.1----29.83- 48.0- 43.2---
2026-08-31 02:12 amNNW 2.9 5.1----29.83- 48.9- 43.7---
2026-08-31 02:02 am NE 1.9 4.1----29.83- 48.0- 42.1---
2026-08-31 01:52 am N 4.1 5.1----29.83- 50.2- 43.2---
2026-08-31 01:42 amNNE 5.1 8.0----29.83- 49.5- 43.2---
2026-08-31 01:32 amNNE 2.9 6.0----29.83- 48.9- 43.0---
2026-08-31 01:22 amNNE 2.9 6.0----29.83- 47.7- 43.0---
2026-08-31 01:12 am NE 4.1 6.0----29.84- 49.3- 43.0---
2026-08-31 01:02 am N 2.9 4.1----29.85- 47.7- 42.8---
2026-08-31 12:52 amNNE 2.9 4.1----29.84- 47.7- 42.8---
2026-08-31 12:42 am NE 1.9 5.1----29.85- 48.7- 43.5---
2026-08-31 12:32 amNNE 2.9 5.1----29.85- 50.0- 43.3---
2026-08-31 12:22 amNNE 2.9 5.1----29.85- 50.4- 43.7---
2026-08-31 12:12 am NE 4.1 6.0----29.85- 50.4- 44.1---
2026-08-31 12:02 amNNE 5.1 7.0----29.85- 50.0- 43.7---
2026-08-30 11:52 pm NE 5.1 8.0----29.85- 49.8- 43.9---
2026-08-30 11:42 pm NE 4.1 6.0----29.85- 48.9- 43.7---
2026-08-30 11:32 pm NE 4.1 6.0----29.85- 49.5- 43.9---
2026-08-30 11:22 pm NE 5.1 7.0----29.85- 49.3- 43.7---
2026-08-30 11:12 pm NE 4.1 7.0----29.85- 48.7- 44.1---
2026-08-30 11:02 pm NE 2.9 5.1----29.85- 49.8- 44.2---
2026-08-30 10:52 pm NE 5.1 7.0----29.86- 50.2- 44.2---
2026-08-30 10:42 pm NE 4.1 7.0----29.86- 49.5- 44.2---
2026-08-30 10:32 pmENE 1.9 4.1----29.85- 50.2- 44.6---
2026-08-30 10:22 pmNNE 2.9 5.1----29.87- 50.7- 44.4---
2026-08-30 10:12 pmNNE 2.9 5.1----29.85- 50.4- 44.8---
2026-08-30 10:02 pmNNE 2.9 6.0----29.86- 52.3- 44.2---
2026-08-30 09:52 pmNNE 1.9 4.1----29.85- 51.3- 45.7---
2026-08-30 09:42 pm E 2.9 6.0----29.86- 52.5- 45.5---
2026-08-30 09:32 pm E 5.1 7.0----29.86- 52.7- 46.0---
2026-08-30 09:22 pmENE 5.1 8.0----29.86- 52.5- 45.9---
2026-08-30 09:12 pm NE 2.9 4.1----29.87- 53.2- 47.3---
2026-08-30 09:02 pm NE 4.1 5.1----29.87- 53.6- 47.3---
2026-08-30 08:52 pm NE 4.1 5.1----29.87- 53.4- 48.4---
2026-08-30 08:42 pm NE 1.9 4.1----29.88- 54.9- 47.5---
2026-08-30 08:32 pmENE 1.9 2.9----29.87- 55.6- 48.2---
2026-08-30 08:22 pmSSE 1.9 2.9----29.87- 55.8- 47.7---
2026-08-30 08:12 pm S 1.9 6.0----29.87- 56.1- 48.7---
2026-08-30 08:02 pm W 1.9 6.0----29.87- 56.1- 48.4---
2026-08-30 07:52 pm NE 1.9 4.1----29.88- 56.7- 48.4---
2026-08-30 07:42 pmESE 1.9 4.1----29.88- 56.7- 47.7---
2026-08-30 07:32 pmESE 1.9 4.1----29.88- 56.8- 48.2---
2026-08-30 07:22 pm S 1.9 2.9----29.89- 57.0- 47.7---
2026-08-30 07:12 pmSSE 1.9 2.9----29.89- 57.0- 48.0---
2026-08-30 07:02 pmESE 1.9 2.9----29.89- 57.6- 48.9---
2026-08-30 06:52 pm SE 2.9 6.0----29.90- 57.0- 49.1---
2026-08-30 06:42 pm SE 2.9 5.1----29.90- 56.7- 48.4---
2026-08-30 06:32 pm E 1.9 4.1----29.90- 57.2- 48.9---
2026-08-30 06:22 pmENE 1.9 2.9----29.90- 56.8- 49.3---
2026-08-30 06:12 pmESE 2.9 6.0----29.90- 56.7- 49.1---
2026-08-30 06:02 pm SE 1.9 5.1----29.91- 56.8- 48.6---
2026-08-30 05:52 pm E 2.9 6.0----29.91- 57.2- 48.9---
2026-08-30 05:42 pm E 1.9 5.1----29.91- 57.0- 48.7---
2026-08-30 05:32 pmESE 2.9 5.1----29.91- 56.8- 49.3---
2026-08-30 05:22 pmESE 2.9 6.0----29.91- 56.7- 48.7---
2026-08-30 05:12 pmSSE 2.9 4.1----29.91- 56.7- 50.5---
2026-08-30 05:02 pmSSE 4.1 6.0----29.92- 56.5- 48.9---
2026-08-30 04:52 pmSSE 2.9 5.1----29.92- 56.7- 48.4---
2026-08-30 04:42 pmSSE 2.9 4.1----29.92- 57.0- 48.0---
2026-08-30 04:32 pmSSE 1.0 2.9----29.93- 57.7- 48.4---
2026-08-30 04:22 pm- 0.0 2.9----29.93- 57.7- 48.7---
2026-08-30 04:12 pmENE 1.0 1.9----29.94- 57.9- 48.6---
2026-08-30 04:02 pm E 1.0 2.9----29.95- 57.7- 49.5---
2026-08-30 03:52 pm E 1.0 2.9----29.95- 57.4- 49.1---
2026-08-30 03:42 pmENE 1.9 2.9----29.96- 57.0- 48.4---
2026-08-30 03:32 pmENE 1.0 1.9----29.96- 57.0- 49.1---
2026-08-30 03:22 pmENE 1.9 2.9----29.97- 56.7- 48.7---
2026-08-30 03:12 pm E 2.9 4.1----29.97- 56.5- 48.9---
2026-08-30 03:02 pm E 2.9 5.1----29.97- 56.3- 49.1---
2026-08-30 02:52 pmESE 2.9 6.0----29.96- 56.8- 48.9---
2026-08-30 02:42 pm SE 2.9 6.0----29.96- 57.4- 48.7---
2026-08-30 02:32 pm SE 2.9 4.1----29.96- 57.2- 48.2---
2026-08-30 02:22 pmSSE 2.9 4.1----29.97- 57.6- 48.9---
2026-08-30 02:12 pmSSE 1.9 4.1----29.98- 57.6- 49.3---
2026-08-30 02:02 pm SE 2.9 4.1----29.97- 57.4- 49.5---
2026-08-30 01:52 pmSSE 2.9 7.0----29.98- 57.2- 50.0---
2026-08-30 01:42 pm SE 4.1 6.0----29.98- 56.8- 49.3---
2026-08-30 01:32 pm SE 2.9 5.1----29.98- 57.4- 49.1---
2026-08-30 01:22 pmSSE 2.9 5.1----29.98- 57.2- 48.6---
2026-08-30 01:12 pm SE 2.9 5.1----29.98- 57.9- 48.9---
2026-08-30 01:02 pm SE 1.9 5.1----29.99- 58.3- 49.3---
2026-08-30 12:52 pm SE 1.9 5.1----29.99- 58.1- 50.2---
2026-08-30 12:42 pmESE 5.1 8.0----29.98- 57.7- 49.5---
2026-08-30 12:32 pmESE 5.1 8.0----29.99- 58.6- 50.0---
2026-08-30 12:22 pmESE 4.1 8.0----30.00- 58.1- 49.8---
2026-08-30 12:12 pm E 4.1 6.0----30.00- 57.4- 50.2---
2026-08-30 12:02 pmESE 2.9 5.1----30.00- 56.7- 49.5---
2026-08-30 11:52 amESE 4.1 7.0----29.99- 56.5- 49.6---
2026-08-30 11:42 am E 4.1 7.0----29.99- 56.5- 49.3---
2026-08-30 11:32 am E 4.1 6.0----30.00- 56.3- 49.5---
2026-08-30 11:22 am E 4.1 7.0----30.00- 56.7- 49.5---
2026-08-30 11:12 amESE 1.9 4.1----30.00- 56.8- 48.9---
2026-08-30 11:02 amNNW 1.0 2.9----30.01- 57.2- 49.6---
2026-08-30 10:52 am W 1.0 2.9----30.01- 56.8- 48.9---
2026-08-30 10:42 am N 1.9 2.9----30.00- 56.1- 48.7---
2026-08-30 10:32 amNNE 1.9 4.1----30.01- 55.6- 49.1---
2026-08-30 10:22 am SW 2.9 6.0----30.01- 55.4- 51.3---
2026-08-30 10:12 amWSW 2.9 6.0----30.01- 55.4- 48.9---
2026-08-30 10:02 amWNW 4.1 8.0----30.01- 55.4- 48.4---
2026-08-30 09:52 amNNW 4.1 6.0----30.01- 54.5- 49.1---
2026-08-30 09:42 amWNW 4.1 6.0----30.01- 54.0- 48.2---
2026-08-30 09:32 amWSW 4.1 8.0----30.01- 53.8- 48.0---
2026-08-30 09:22 am NW 2.9 7.0----30.01- 53.8- 47.8---
2026-08-30 09:12 amWNW 4.1 7.0----30.01- 53.2- 47.8---
2026-08-30 09:02 am NW 4.1 6.0----30.01- 52.9- 47.5---
2026-08-30 08:52 amWNW 4.1 9.9----30.01- 52.9- 47.5---
2026-08-30 08:42 amENE 4.1 6.0----30.00- 55.4- 48.0---
2026-08-30 08:32 am E 4.1 8.0----30.01- 55.2- 48.2---
2026-08-30 08:22 am NE 4.1 6.0----30.01- 53.4- 47.7---
2026-08-30 08:12 amNNE 4.1 7.0----30.01- 52.3- 47.3---
2026-08-30 08:02 amESE 4.1 9.9----30.01- 53.1- 47.3---
2026-08-30 07:52 am N 4.1 7.0----30.00- 50.9- 46.6---